Time;durP1;ratioP1;P1;durP2;ratioP2;P2;SDS_P1;SDS_P2;PMS_P1;PMS_P2;Temp;Humidity;BMP_temperature;BMP_pressure;BME280_temperature;BME280_humidity;BME280_pressure;Samples;Min_cycle;Max_cycle;Signal;HPM_P1;HPM_P2
2022/03/19 00:01:56;;;;;;;;;6.75;6.25;;;;;10.01;41.32;103224.53;5080458;28;45288;-65
2022/03/19 00:04:22;;;;;;;;;4.50;3.75;;;;;10.00;41.73;103233.19;5080098;28;45393;-65
2022/03/19 00:06:48;;;;;;;;;3.00;3.00;;;;;9.98;41.59;103219.31;5079776;28;45241;-65
2022/03/19 00:09:13;;;;;;;;;4.50;3.25;;;;;9.96;40.93;103219.28;5080050;27;45313;-64
2022/03/19 00:11:40;;;;;;;;;5.50;2.25;;;;;9.94;41.88;103222.72;5079140;28;45285;-64
2022/03/19 00:14:06;;;;;;;;;7.00;6.75;;;;;9.92;41.76;103216.63;5078799;28;45370;-65
2022/03/19 00:16:32;;;;;;;;;7.00;4.50;;;;;9.89;41.37;103217.44;5080191;27;45326;-64
2022/03/19 00:18:57;;;;;;;;;7.00;5.50;;;;;9.88;41.72;103217.44;5078515;28;45886;-64
2022/03/19 00:21:23;;;;;;;;;7.25;4.00;;;;;9.83;41.07;103222.56;5079637;27;45468;-64
2022/03/19 00:23:48;;;;;;;;;3.25;3.00;;;;;9.83;41.30;103221.69;5079728;27;45332;-64
2022/03/19 00:26:15;;;;;;;;;4.50;4.50;;;;;9.82;41.29;103223.41;5079887;28;45307;-64
2022/03/19 00:28:41;;;;;;;;;3.75;3.75;;;;;9.81;40.97;103225.97;5079241;27;45415;-64
2022/03/19 00:31:07;;;;;;;;;2.00;1.00;;;;;9.80;41.26;103225.09;5078510;27;45362;-64
2022/03/19 00:33:33;;;;;;;;;7.00;3.50;;;;;9.79;41.38;103227.66;5079770;28;45342;-64
2022/03/19 00:35:59;;;;;;;;;5.25;5.25;;;;;9.75;40.79;103225.03;5079580;28;45377;-64
2022/03/19 00:38:24;;;;;;;;;6.75;3.25;;;;;9.76;40.94;103228.50;5079582;28;45161;-64
2022/03/19 00:40:51;;;;;;;;;4.75;3.00;;;;;9.75;41.13;103231.94;5078520;28;45814;-65
2022/03/19 00:43:19;;;;;;;;;4.25;3.00;;;;;9.71;41.24;103220.63;5079750;27;45500;-65
2022/03/19 00:45:45;;;;;;;;;4.25;3.00;;;;;9.70;41.20;103225.81;5079945;28;45312;-65
2022/03/19 00:48:10;;;;;;;;;2.00;1.50;;;;;9.68;40.99;103219.72;5079638;27;45357;-65
2022/03/19 00:50:35;;;;;;;;;6.00;3.00;;;;;9.64;41.13;103211.00;5079650;28;45302;-65
2022/03/19 00:53:01;;;;;;;;;4.00;4.00;;;;;9.65;41.35;103219.69;5079060;27;45499;-65
2022/03/19 00:55:26;;;;;;;;;2.00;2.00;;;;;9.64;41.23;103217.94;5078790;28;46440;-65
2022/03/19 00:57:51;;;;;;;;;3.00;3.00;;;;;9.61;41.11;103212.66;5078500;28;45325;-65
2022/03/19 01:00:24;;;;;;;;;5.00;3.00;;;;;9.60;41.10;103210.91;5079631;28;45278;-65
2022/03/19 01:02:50;;;;;;;;;1.75;1.50;;;;;9.54;40.99;103203.03;5079235;27;45286;-65
2022/03/19 01:05:17;;;;;;;;;6.00;3.00;;;;;9.55;41.28;103208.25;5078979;27;46122;-65
2022/03/19 01:07:50;;;;;;;;;2.00;2.00;;;;;9.52;41.22;103200.41;5082551;27;45433;-65
2022/03/19 01:10:20;;;;;;;;;5.50;2.00;;;;;9.49;40.72;103200.38;5083139;27;45438;-64
2022/03/19 01:12:47;;;;;;;;;4.25;4.25;;;;;9.46;41.18;103202.94;5082753;27;45499;-64
2022/03/19 01:15:13;;;;;;;;;3.00;1.75;;;;;9.44;40.83;103202.91;5082369;27;46174;-65
2022/03/19 01:17:39;;;;;;;;;2.00;2.00;;;;;9.41;41.01;103196.75;5081259;28;45573;-64
2022/03/19 01:20:06;;;;;;;;;4.75;2.00;;;;;9.42;40.91;103195.94;5082298;27;45310;-64
2022/03/19 01:22:32;;;;;;;;;2.50;2.25;;;;;9.40;41.34;103193.28;5082588;27;45460;-64
2022/03/19 01:25:03;;;;;;;;;2.50;2.50;;;;;9.36;41.43;103194.09;5082671;27;46350;-65
2022/03/19 01:27:29;;;;;;;;;2.50;2.00;;;;;9.34;41.37;103193.19;5082538;27;45408;-64
2022/03/19 01:29:54;;;;;;;;;3.00;2.00;;;;;9.32;41.05;103199.22;5082428;27;45758;-65
2022/03/19 01:32:20;;;;;;;;;4.75;3.00;;;;;9.27;40.88;103193.94;5082375;28;45321;-65
2022/03/19 01:34:45;;;;;;;;;4.25;4.25;;;;;9.26;41.35;103189.63;5082393;28;46004;-65
2022/03/19 01:37:10;;;;;;;;;2.00;2.00;;;;;9.22;41.49;103190.41;5082313;28;45307;-64
2022/03/19 01:39:36;;;;;;;;;3.50;2.00;;;;;9.21;41.28;103185.16;5082530;28;45328;-65
2022/03/19 01:42:01;;;;;;;;;2.50;2.50;;;;;9.20;41.07;103188.63;5082340;28;45305;-65
2022/03/19 01:44:27;;;;;;;;;5.00;3.50;;;;;9.18;41.03;103190.31;5082226;27;46160;-65
2022/03/19 01:47:00;;;;;;;;;3.25;2.25;;;;;9.15;41.13;103181.63;5082316;28;45140;-65
2022/03/19 01:49:26;;;;;;;;;4.00;4.00;;;;;9.12;41.21;103186.78;5082516;27;45317;-66
2022/03/19 01:51:52;;;;;;;;;3.25;2.00;;;;;9.09;41.51;103180.66;5082109;28;46122;-66
2022/03/19 01:54:23;;;;;;;;;1.75;1.75;;;;;9.07;41.62;103174.56;5081923;27;45954;-66
2022/03/19 01:56:49;;;;;;;;;4.00;3.00;;;;;9.05;41.17;103168.50;5082151;27;45836;-67
2022/03/19 01:59:16;;;;;;;;;4.75;4.50;;;;;9.01;41.25;103164.97;5082113;28;45842;-67
2022/03/19 02:01:42;;;;;;;;;3.00;1.75;;;;;8.97;41.23;103170.94;5082201;27;45252;-67
2022/03/19 02:04:08;;;;;;;;;4.00;3.00;;;;;9.00;41.63;103165.78;5080423;28;45958;-67
2022/03/19 02:06:35;;;;;;;;;5.75;2.00;;;;;8.98;41.59;103164.00;5082044;27;45726;-67
2022/03/19 02:09:01;;;;;;;;;3.25;3.00;;;;;8.93;41.71;103158.75;5081944;27;45269;-67
2022/03/19 02:11:29;;;;;;;;;1.50;1.50;;;;;8.96;41.35;103171.78;5082202;28;45259;-67
2022/03/19 02:13:54;;;;;;;;;2.25;2.25;;;;;8.94;41.61;103170.88;5081657;27;45652;-67
2022/03/19 02:16:20;;;;;;;;;2.50;2.00;;;;;8.91;41.90;103169.94;5082091;27;45337;-66
2022/03/19 02:18:46;;;;;;;;;3.50;2.25;;;;;8.91;41.64;103167.34;5081641;27;45306;-66
2022/03/19 02:21:11;;;;;;;;;6.00;2.25;;;;;8.88;42.06;103155.22;5081412;27;46662;-66
2022/03/19 02:26:20;;;;;;;;;2.00;2.00;;;;;8.84;41.97;103159.47;5081808;28;45376;-66
2022/03/19 02:28:46;;;;;;;;;3.00;3.00;;;;;8.79;41.64;103142.94;5081289;28;45691;-65
2022/03/19 02:31:11;;;;;;;;;4.00;2.00;;;;;8.78;41.99;103145.50;5081476;28;45219;-66
2022/03/19 02:33:37;;;;;;;;;2.50;2.50;;;;;8.77;42.22;103142.03;5081358;27;45383;-65
2022/03/19 02:36:02;;;;;;;;;4.50;2.75;;;;;8.76;42.07;103136.81;5081441;28;45314;-66
2022/03/19 02:38:27;;;;;;;;;7.00;3.00;;;;;8.67;42.10;103119.41;5081427;28;45480;-66
2022/03/19 02:40:53;;;;;;;;;2.25;2.00;;;;;8.70;42.40;103129.81;5081723;27;45282;-66
2022/03/19 02:43:18;;;;;;;;;6.50;1.00;;;;;8.68;42.11;103125.44;5081097;28;46097;-66
2022/03/19 02:45:47;;;;;;;;;4.50;4.50;;;;;8.65;42.23;103128.88;5081648;28;45377;-66
2022/03/19 02:48:12;;;;;;;;;5.50;5.50;;;;;8.63;42.53;103130.56;5081359;27;45404;-65
2022/03/19 02:50:38;;;;;;;;;7.00;5.50;;;;;8.63;42.42;103132.28;5079767;28;45315;-64
2022/03/19 02:53:06;;;;;;;;;5.50;2.50;;;;;8.61;42.48;103129.66;5079722;28;48010;-65
2022/03/19 02:55:40;;;;;;;;;5.00;5.00;;;;;8.61;42.74;103129.66;5081302;27;45324;-64
2022/03/19 02:58:07;;;;;;;;;5.00;5.00;;;;;8.58;42.81;103134.75;5081278;27;45345;-64
2022/03/19 03:00:33;;;;;;;;;2.00;2.00;;;;;8.56;42.99;103126.09;5081202;27;45394;-64
2022/03/19 03:03:00;;;;;;;;;6.00;5.00;;;;;8.55;43.02;103113.97;5080878;27;45324;-64
2022/03/19 03:05:25;;;;;;;;;6.00;6.00;;;;;8.49;43.16;103119.03;5080937;27;45230;-64
2022/03/19 03:07:51;;;;;;;;;4.75;4.75;;;;;8.49;42.93;103122.50;5081134;27;45489;-64
2022/03/19 03:10:17;;;;;;;;;4.50;4.00;;;;;8.47;42.86;103119.03;5081151;27;45190;-64
2022/03/19 03:12:42;;;;;;;;;5.50;3.00;;;;;8.45;43.25;103122.44;5080830;27;46159;-64
2022/03/19 03:15:09;;;;;;;;;7.00;3.00;;;;;8.43;43.18;103127.59;5080809;27;45356;-64
2022/03/19 03:17:35;;;;;;;;;3.50;3.50;;;;;8.41;43.69;103124.09;5076692;28;45353;-64
2022/03/19 03:20:02;;;;;;;;;5.50;3.50;;;;;8.39;43.73;103119.69;5080343;27;45259;-64
2022/03/19 03:22:29;;;;;;;;;13.25;6.25;;;;;8.36;43.43;103109.28;5080368;27;45331;-64
2022/03/19 03:24:54;;;;;;;;;7.00;5.25;;;;;8.36;43.93;103117.91;5080866;27;45301;-64
2022/03/19 03:27:21;;;;;;;;;6.00;5.75;;;;;8.34;43.78;103118.75;5080769;27;45208;-64
2022/03/19 03:29:46;;;;;;;;;8.50;6.00;;;;;8.32;43.57;103110.91;5079783;27;45165;-65
2022/03/19 03:32:12;;;;;;;;;5.50;5.00;;;;;8.31;44.05;103121.25;5080345;28;46541;-64
2022/03/19 03:34:38;;;;;;;;;7.50;5.25;;;;;8.23;43.85;103101.25;5080456;28;45353;-64
2022/03/19 03:37:03;;;;;;;;;5.75;5.00;;;;;8.28;43.85;103106.50;5080517;27;45424;-65
2022/03/19 03:39:29;;;;;;;;;6.00;5.75;;;;;8.27;44.16;103102.19;5080547;27;45480;-65
2022/03/19 03:41:54;;;;;;;;;5.75;5.75;;;;;8.26;43.72;103104.75;5080265;28;46122;-65
2022/03/19 03:44:19;;;;;;;;;12.00;7.00;;;;;8.23;44.24;103103.84;5080525;28;45318;-65
2022/03/19 03:46:45;;;;;;;;;9.50;6.00;;;;;8.21;44.29;103097.75;5080380;28;45440;-65
2022/03/19 03:49:10;;;;;;;;;12.00;5.75;;;;;8.20;44.63;103101.16;5079130;28;45509;-65
2022/03/19 03:51:37;;;;;;;;;10.75;9.50;;;;;8.17;44.41;103075.19;5079777;27;46450;-64
2022/03/19 03:54:05;;;;;;;;;8.25;6.25;;;;;8.15;44.57;103065.66;5078966;28;45395;-64
2022/03/19 03:56:31;;;;;;;;;12.00;7.50;;;;;8.14;44.99;103077.72;5080040;27;45351;-64
2022/03/19 03:58:57;;;;;;;;;10.00;6.75;;;;;8.10;44.74;103070.75;5080210;28;45211;-64
2022/03/19 04:01:22;;;;;;;;;9.00;6.50;;;;;8.10;45.22;103088.00;5078634;28;47230;-66
2022/03/19 04:03:48;;;;;;;;;14.50;10.50;;;;;8.09;45.30;103089.72;5080222;28;45480;-64
2022/03/19 04:06:13;;;;;;;;;8.25;7.00;;;;;8.07;45.47;103091.41;5079993;27;45242;-65
2022/03/19 04:08:39;;;;;;;;;10.50;9.50;;;;;8.06;45.90;103081.03;5080208;28;45434;-65
2022/03/19 04:11:04;;;;;;;;;15.25;9.00;;;;;8.06;45.69;103081.91;5079882;28;45388;-65
2022/03/19 04:13:29;;;;;;;;;11.50;9.75;;;;;8.06;45.69;103087.06;5080193;28;45319;-65
2022/03/19 04:15:55;;;;;;;;;11.00;9.25;;;;;8.05;46.02;103087.91;5080085;28;45529;-66
2022/03/19 04:18:20;;;;;;;;;7.00;7.00;;;;;8.03;45.78;103078.38;5080017;28;45357;-65
2022/03/19 04:20:46;;;;;;;;;10.25;9.25;;;;;8.04;46.13;103078.41;5079384;27;46124;-65
2022/03/19 04:23:11;;;;;;;;;12.75;10.50;;;;;8.03;45.97;103078.38;5080116;28;45322;-66
2022/03/19 04:25:36;;;;;;;;;16.25;11.50;;;;;8.01;45.84;103086.13;5079882;28;45514;-65
2022/03/19 04:28:02;;;;;;;;;15.00;10.00;;;;;8.00;46.59;103079.16;5079911;28;45480;-66
2022/03/19 04:30:28;;;;;;;;;9.25;9.25;;;;;7.99;46.26;103080.00;5079312;28;45479;-66
2022/03/19 04:32:54;;;;;;;;;15.50;12.75;;;;;7.99;46.20;103085.19;5079794;27;45172;-66
2022/03/19 04:38:07;;;;;;;;;20.50;17.75;;;;;7.93;47.13;103090.25;5079642;28;45243;-66
2022/03/19 04:40:34;;;;;;;;;21.25;15.00;;;;;7.94;47.08;103077.31;5079820;27;46287;-64
2022/03/19 04:42:59;;;;;;;;;17.25;13.50;;;;;7.95;47.15;103078.19;5081939;28;45631;-64
2022/03/19 04:45:25;;;;;;;;;18.00;13.50;;;;;7.91;47.72;103076.41;5083582;28;45330;-65
2022/03/19 04:47:51;;;;;;;;;22.75;14.75;;;;;7.90;48.41;103069.47;5083017;27;45306;-65
2022/03/19 04:50:17;;;;;;;;;14.75;10.75;;;;;7.86;48.14;103081.50;5082593;27;46294;-64
2022/03/19 04:52:43;;;;;;;;;16.50;10.75;;;;;7.88;48.28;103078.94;5080724;27;45465;-64
2022/03/19 04:55:09;;;;;;;;;20.25;14.50;;;;;7.86;48.21;103076.31;5080860;27;45357;-65
2022/03/19 04:57:35;;;;;;;;;26.00;18.25;;;;;7.85;48.38;103076.28;5080555;27;45800;-64
2022/03/19 05:00:01;;;;;;;;;18.50;14.50;;;;;7.84;47.94;103071.94;5080703;27;45480;-64
2022/03/19 05:02:26;;;;;;;;;22.00;18.00;;;;;7.81;48.39;103062.41;5080357;28;45675;-64
2022/03/19 05:04:52;;;;;;;;;24.00;22.50;;;;;7.81;48.13;103071.88;5080546;27;45625;-64
2022/03/19 05:07:21;;;;;;;;;23.25;17.25;;;;;7.80;48.61;103063.22;5080539;27;45780;-64
2022/03/19 05:12:37;;;;;;;;;19.75;17.50;;;;;7.77;49.41;103070.03;5080371;28;45907;-63
2022/03/19 05:15:03;;;;;;;;;23.25;20.25;;;;;7.73;49.35;103066.53;5080513;27;45377;-63
2022/03/19 05:17:29;;;;;;;;;25.50;19.00;;;;;7.73;49.52;103082.06;5080108;27;45392;-63
2022/03/19 05:19:54;;;;;;;;;17.50;16.00;;;;;7.72;49.44;103074.25;5079713;27;45700;-63
2022/03/19 05:22:20;;;;;;;;;18.25;16.00;;;;;7.68;50.53;103078.50;5079963;27;45642;-63
2022/03/19 05:24:46;;;;;;;;;28.00;19.00;;;;;7.69;50.00;103079.38;5081023;28;45457;-63
2022/03/19 05:27:11;;;;;;;;;12.75;6.00;;;;;7.67;49.98;103075.88;5081189;28;45323;-64
2022/03/19 05:29:37;;;;;;;;;18.75;18.75;;;;;7.64;50.28;103076.69;5081978;28;45380;-63
2022/03/19 05:32:04;;;;;;;;;23.50;18.75;;;;;7.62;50.96;103080.97;5082423;28;45241;-63
2022/03/19 05:34:29;;;;;;;;;24.25;18.25;;;;;7.60;50.23;103087.78;5082505;27;45341;-63
2022/03/19 05:36:55;;;;;;;;;32.25;18.75;;;;;7.56;51.01;103083.38;5081667;27;45443;-63
2022/03/19 05:39:20;;;;;;;;;28.00;23.50;;;;;7.56;51.92;103094.59;5082247;28;45655;-63
2022/03/19 05:41:46;;;;;;;;;26.50;21.50;;;;;7.53;51.56;103084.19;5082337;27;45291;-65
2022/03/19 05:44:11;;;;;;;;;22.00;15.00;;;;;7.51;51.07;103080.72;5082580;27;45415;-65
2022/03/19 05:46:36;;;;;;;;;22.50;18.50;;;;;7.51;51.80;103080.72;5082189;27;45172;-65
2022/03/19 05:49:02;;;;;;;;;28.00;19.25;;;;;7.51;51.23;103085.88;5082172;28;45421;-64
2022/03/19 05:51:27;;;;;;;;;14.75;13.50;;;;;7.50;51.83;103081.53;5081189;28;45315;-64
2022/03/19 05:53:53;;;;;;;;;26.50;21.25;;;;;7.46;51.88;103077.16;5082338;28;45341;-64
2022/03/19 05:56:18;;;;;;;;;34.75;23.25;;;;;7.46;51.72;103084.91;5081820;28;45381;-64
2022/03/19 05:58:43;;;;;;;;;28.50;19.25;;;;;7.45;51.77;103085.75;5081905;28;45345;-63
2022/03/19 06:01:09;;;;;;;;;30.50;22.75;;;;;7.47;52.09;103089.25;5081755;28;45461;-64
2022/03/19 06:03:34;;;;;;;;;29.75;22.00;;;;;7.44;53.31;103083.13;5080901;28;45410;-63
2022/03/19 06:05:59;;;;;;;;;26.75;20.00;;;;;7.46;52.26;103086.63;5081534;28;45304;-63
2022/03/19 06:08:25;;;;;;;;;32.75;26.25;;;;;7.44;51.86;103086.59;5081888;28;46491;-63
2022/03/19 06:10:50;;;;;;;;;40.25;31.00;;;;;7.44;52.44;103085.72;5081775;27;45352;-64
2022/03/19 06:13:15;;;;;;;;;37.75;26.25;;;;;7.44;52.16;103086.59;5082100;28;45474;-64
2022/03/19 06:15:41;;;;;;;;;27.75;21.25;;;;;7.44;53.34;103081.41;5081576;28;45358;-65
2022/03/19 06:18:06;;;;;;;;;26.25;24.00;;;;;7.47;53.15;103094.41;5081785;28;45331;-66
2022/03/19 06:20:31;;;;;;;;;37.75;26.50;;;;;7.46;53.05;103087.50;5081120;27;45467;-66
2022/03/19 06:22:58;;;;;;;;;33.75;24.75;;;;;7.49;54.36;103092.72;5081993;28;45476;-66
2022/03/19 06:25:24;;;;;;;;;40.25;30.25;;;;;7.50;52.63;103093.59;5081671;27;45457;-66
2022/03/19 06:27:49;;;;;;;;;33.75;29.75;;;;;7.52;53.05;103105.75;5081721;28;46482;-66
2022/03/19 06:30:14;;;;;;;;;38.25;29.50;;;;;7.52;54.04;103095.38;5080977;28;45249;-66
2022/03/19 06:32:41;;;;;;;;;40.00;29.00;;;;;7.53;54.16;103101.44;5081611;28;45269;-65
2022/03/19 06:35:08;;;;;;;;;22.50;18.75;;;;;7.56;54.18;103101.50;5081080;27;45504;-66
2022/03/19 06:37:34;;;;;;;;;36.50;28.50;;;;;7.59;53.24;103104.16;5081409;27;45524;-70
2022/03/19 06:40:06;;;;;;;;;45.00;31.25;;;;;7.60;54.58;103109.34;5081018;28;45303;-69
2022/03/19 06:42:32;;;;;;;;;42.25;29.00;;;;;7.63;53.91;103101.69;5081522;27;45339;-67
2022/03/19 06:44:58;;;;;;;;;51.25;34.00;;;;;7.62;54.01;103093.91;5081102;28;45359;-67
2022/03/19 06:47:23;;;;;;;;;36.50;30.50;;;;;7.71;54.12;103094.09;5080981;28;45758;-65
2022/03/19 06:49:50;;;;;;;;;31.50;19.25;;;;;7.76;54.02;103086.41;5079206;28;45361;-65
2022/03/19 06:52:16;;;;;;;;;41.50;31.00;;;;;7.76;54.52;103086.41;5081330;27;45275;-65
2022/03/19 06:54:41;;;;;;;;;41.75;37.50;;;;;7.83;54.90;103084.00;5080806;28;45394;-65
2022/03/19 06:57:06;;;;;;;;;51.25;36.00;;;;;7.88;55.00;103086.69;5081208;27;45234;-65
2022/03/19 06:59:32;;;;;;;;;40.00;31.50;;;;;7.92;54.92;103085.91;5080779;28;45231;-65
2022/03/19 07:01:58;;;;;;;;;49.50;39.50;;;;;7.96;55.00;103074.78;5079852;28;45322;-65
2022/03/19 07:04:23;;;;;;;;;53.75;41.00;;;;;8.00;54.94;103076.56;5079612;27;45596;-65
2022/03/19 07:06:49;;;;;;;;;52.25;40.00;;;;;8.03;55.65;103071.47;5080699;28;46223;-65
2022/03/19 07:09:14;;;;;;;;;54.50;41.00;;;;;8.12;54.80;103083.72;5080767;27;45214;-65
2022/03/19 07:11:40;;;;;;;;;47.75;34.00;;;;;8.18;56.03;103069.19;5081208;27;45260;-65
2022/03/19 07:14:05;;;;;;;;;42.25;33.50;;;;;8.22;56.63;103078.78;5080683;27;45386;-65
2022/03/19 07:16:31;;;;;;;;;49.00;38.25;;;;;8.30;55.80;103094.47;5080789;27;45267;-65
2022/03/19 07:18:56;;;;;;;;;56.25;36.25;;;;;8.35;55.85;103090.28;5078482;28;45359;-65
2022/03/19 07:21:22;;;;;;;;;48.00;37.75;;;;;8.40;56.00;103093.81;5075979;27;45204;-66
2022/03/19 07:23:48;;;;;;;;;55.00;37.50;;;;;8.48;55.44;103093.97;5080590;27;45307;-65
2022/03/19 07:26:14;;;;;;;;;55.25;42.00;;;;;8.56;56.39;103084.63;5080735;27;46703;-66
2022/03/19 07:28:40;;;;;;;;;63.25;45.75;;;;;8.63;55.68;103088.22;5080178;28;45500;-66
2022/03/19 07:31:06;;;;;;;;;56.50;43.00;;;;;8.67;56.49;103080.50;5080551;27;45480;-66
2022/03/19 07:33:34;;;;;;;;;49.50;39.50;;;;;8.75;56.25;103085.81;5080515;27;45269;-66
2022/03/19 07:36:01;;;;;;;;;60.75;42.50;;;;;8.80;55.56;103084.19;5080237;27;45254;-65
2022/03/19 07:38:26;;;;;;;;;48.00;41.25;;;;;8.88;55.58;103082.59;5080269;27;45287;-65
2022/03/19 07:43:36;;;;;;;;;53.00;37.50;;;;;9.02;55.33;103086.31;5080364;28;45199;-66
2022/03/19 07:46:02;;;;;;;;;55.50;42.50;;;;;9.09;55.47;103088.16;5080287;28;45912;-68
2022/03/19 07:48:27;;;;;;;;;57.75;42.25;;;;;9.11;54.98;103083.84;5079006;28;45341;-68
2022/03/19 07:50:53;;;;;;;;;48.75;37.25;;;;;9.17;54.96;103090.84;5080089;28;45371;-64
2022/03/19 07:53:19;;;;;;;;;49.75;39.75;;;;;9.19;54.60;103083.09;5079847;27;45291;-67
2022/03/19 07:55:44;;;;;;;;;58.00;43.25;;;;;9.28;55.08;103085.84;5079623;27;45291;-65
2022/03/19 07:58:10;;;;;;;;;67.00;47.75;;;;;9.31;55.06;103078.97;5079949;27;45398;-66
2022/03/19 08:00:36;;;;;;;;;56.75;38.00;;;;;9.39;54.76;103092.06;5080253;27;45315;-64
2022/03/19 08:03:01;;;;;;;;;54.75;40.25;;;;;9.45;54.84;103082.66;5079853;28;45493;-63
2022/03/19 08:05:27;;;;;;;;;61.75;39.50;;;;;9.51;54.76;103086.19;5079555;27;47134;-63
2022/03/19 08:07:52;;;;;;;;;68.25;45.75;;;;;9.59;54.88;103071.59;5079885;27;45231;-63
2022/03/19 08:10:18;;;;;;;;;64.75;43.75;;;;;9.69;54.55;103086.44;5078849;28;45453;-62
2022/03/19 08:12:45;;;;;;;;;61.50;43.50;;;;;9.75;54.27;103079.59;5079940;27;45469;-61
2022/03/19 08:15:11;;;;;;;;;63.75;45.25;;;;;9.80;54.47;103079.66;5079767;27;45726;-61
2022/03/19 08:17:37;;;;;;;;;51.50;41.75;;;;;9.87;54.22;103081.50;5079881;27;45239;-61
2022/03/19 08:20:06;;;;;;;;;56.25;41.00;;;;;9.97;53.91;103078.16;5079538;27;45419;-60
2022/03/19 08:22:32;;;;;;;;;56.75;41.00;;;;;10.04;53.85;103081.72;5078276;27;45291;-61
2022/03/19 08:24:58;;;;;;;;;72.75;51.25;;;;;10.13;53.76;103071.44;5079640;27;45343;-61
2022/03/19 08:27:24;;;;;;;;;57.25;43.50;;;;;10.17;53.88;103074.94;5079553;27;45164;-62
2022/03/19 08:29:50;;;;;;;;;59.50;43.50;;;;;10.21;53.68;103075.03;5079387;28;45278;-63
2022/03/19 08:32:16;;;;;;;;;61.25;45.00;;;;;10.28;53.55;103074.25;5079454;27;45227;-61
2022/03/19 08:34:43;;;;;;;;;65.25;47.00;;;;;10.31;53.37;103065.59;5078001;28;47039;-62
2022/03/19 08:37:08;;;;;;;;;68.00;48.50;;;;;10.35;53.36;103068.25;5079257;27;45813;-60
2022/03/19 08:42:18;;;;;;;;;69.75;48.00;;;;;10.58;53.16;103070.19;5067802;28;45484;-66
2022/03/19 08:44:43;;;;;;;;;71.75;49.75;;;;;10.67;53.02;103067.72;5079156;28;46107;-61
2022/03/19 08:47:09;;;;;;;;;63.25;48.00;;;;;10.72;52.68;103060.81;5079530;28;45353;-62
2022/03/19 08:49:34;;;;;;;;;63.50;46.00;;;;;10.78;52.06;103076.47;5079093;27;45318;-63
2022/03/19 08:52:00;;;;;;;;;66.00;48.50;;;;;10.85;52.37;103062.69;5079492;28;45302;-61
2022/03/19 08:54:25;;;;;;;;;53.00;39.00;;;;;10.91;52.22;103059.25;5077288;28;47571;-63
2022/03/19 08:56:51;;;;;;;;;68.75;47.75;;;;;10.94;51.95;103060.13;5079483;27;45337;-62
2022/03/19 08:59:19;;;;;;;;;59.00;43.75;;;;;11.01;51.92;103062.78;5078527;27;45872;-62
2022/03/19 09:01:45;;;;;;;;;66.00;49.50;;;;;11.08;51.54;103060.25;5078704;27;45436;-62
2022/03/19 09:04:11;;;;;;;;;60.75;47.25;;;;;11.13;52.09;103053.34;5078225;27;45358;-63
2022/03/19 09:06:38;;;;;;;;;61.25;46.25;;;;;11.24;51.75;103051.69;5078503;27;45537;-62
2022/03/19 09:09:04;;;;;;;;;69.75;48.25;;;;;11.36;51.45;103057.84;5079046;27;45349;-64
2022/03/19 09:11:33;;;;;;;;;62.50;45.50;;;;;11.47;51.18;103054.44;5079250;27;45359;-61
2022/03/19 09:13:59;;;;;;;;;61.00;45.00;;;;;11.58;50.77;103054.50;5078870;27;45250;-61
2022/03/19 09:16:24;;;;;;;;;69.00;49.00;;;;;11.67;50.50;103045.88;5079238;28;45207;-61
2022/03/19 09:18:50;;;;;;;;;65.25;48.50;;;;;11.72;50.37;103055.44;5079021;27;45235;-59
2022/03/19 09:21:17;;;;;;;;;64.50;47.50;;;;;11.79;50.34;103046.81;5078805;27;45300;-59
2022/03/19 09:23:45;;;;;;;;;61.25;45.75;;;;;11.89;50.12;103052.94;5078750;27;46638;-61
2022/03/19 09:26:11;;;;;;;;;67.00;49.25;;;;;11.96;49.14;103040.81;5079038;27;45266;-59
2022/03/19 09:28:37;;;;;;;;;62.00;45.50;;;;;12.01;49.07;103042.56;5081718;27;45329;-58
2022/03/19 09:31:02;;;;;;;;;65.75;49.25;;;;;12.01;49.18;103036.47;5082451;27;45255;-59
2022/03/19 09:33:28;;;;;;;;;67.25;46.50;;;;;12.13;49.33;103028.69;5082115;28;45426;-60
2022/03/19 09:35:54;;;;;;;;;59.00;44.00;;;;;12.23;48.25;103029.59;5078817;27;45208;-59
2022/03/19 09:38:19;;;;;;;;;66.00;47.75;;;;;12.26;48.64;103017.44;5082215;27;45177;-59
2022/03/19 09:40:45;;;;;;;;;64.50;46.25;;;;;12.37;48.36;103031.34;5082449;27;45164;-62
2022/03/19 09:43:11;;;;;;;;;66.25;47.50;;;;;12.49;48.58;103025.31;5082056;27;46279;-59
2022/03/19 09:45:38;;;;;;;;;62.75;48.00;;;;;12.61;47.76;103030.50;5080912;28;45275;-59
2022/03/19 09:48:04;;;;;;;;;64.00;48.00;;;;;12.73;47.84;103029.66;5080524;27;45329;-58
2022/03/19 09:50:31;;;;;;;;;61.00;45.25;;;;;12.90;46.99;103024.44;5078008;28;45406;-58
2022/03/19 09:52:57;;;;;;;;;59.00;44.75;;;;;13.02;45.50;103014.00;5079862;27;45998;-59
2022/03/19 09:55:26;;;;;;;;;64.75;48.25;;;;;13.09;46.07;103013.97;5080365;27;45863;-59
2022/03/19 09:57:53;;;;;;;;;57.75;44.00;;;;;13.19;45.15;103013.97;5079360;27;45840;-60
2022/03/19 10:00:22;;;;;;;;;62.25;47.50;;;;;13.25;44.01;103009.63;5078123;28;45408;-59
2022/03/19 10:02:53;;;;;;;;;56.75;43.25;;;;;13.34;44.63;103004.38;5080660;27;46142;-59
2022/03/19 10:10:48;;;;;;;;;56.00;43.00;;;;;13.78;44.19;103000.72;5080634;28;45336;-61
2022/03/19 10:13:13;;;;;;;;;61.75;45.00;;;;;13.94;44.33;103006.75;5080840;28;45317;-61
2022/03/19 10:15:40;;;;;;;;;55.75;40.00;;;;;14.06;43.91;102995.38;5080426;28;45259;-61
2022/03/19 10:18:08;;;;;;;;;61.00;45.00;;;;;14.27;43.17;102992.63;5080872;27;45465;-61
2022/03/19 10:20:34;;;;;;;;;64.25;47.00;;;;;14.78;41.69;102986.13;5078934;27;45315;-61
2022/03/19 10:23:00;;;;;;;;;59.50;45.25;;;;;15.27;40.72;102980.41;5080473;27;45457;-60
2022/03/19 10:25:25;;;;;;;;;60.25;45.50;;;;;15.23;40.58;102978.72;5080499;27;45343;-61
2022/03/19 10:27:51;;;;;;;;;57.50;43.25;;;;;15.16;41.33;102964.78;5080787;27;45507;-61
2022/03/19 10:30:21;;;;;;;;;55.50;43.25;;;;;15.60;41.13;102966.03;5079928;28;45310;-61
2022/03/19 10:32:52;;;;;;;;;60.00;44.00;;;;;15.82;38.51;102959.66;5079840;27;45285;-60
2022/03/19 10:35:41;;;;;;;;;58.25;43.75;;;;;15.59;39.33;102963.44;5079416;27;46258;-61
2022/03/19 10:38:23;;;;;;;;;57.75;44.25;;;;;15.42;38.82;102963.66;5080251;27;45410;-61
2022/03/19 10:40:51;;;;;;;;;60.00;43.25;;;;;15.37;39.09;102961.06;5080435;27;45361;-61
2022/03/19 10:43:22;;;;;;;;;58.00;41.00;;;;;15.39;39.22;102961.03;5080592;27;46325;-61
2022/03/19 10:45:52;;;;;;;;;58.00;45.00;;;;;15.36;38.21;102946.22;5081156;27;45974;-61
2022/03/19 10:48:26;;;;;;;;;60.25;44.25;;;;;15.29;38.75;102947.19;5080137;27;45247;-61
2022/03/19 10:50:53;;;;;;;;;58.50;44.00;;;;;15.34;37.99;102934.03;5078936;27;45425;-62
2022/03/19 10:53:19;;;;;;;;;52.25;38.75;;;;;15.37;38.86;102947.94;5080096;27;45855;-62
2022/03/19 10:55:45;;;;;;;;;54.75;41.50;;;;;15.38;38.53;102944.44;5080463;27;45356;-62
2022/03/19 10:58:11;;;;;;;;;46.75;36.00;;;;;15.39;38.05;102946.19;5080671;28;45290;-62
2022/03/19 11:00:37;;;;;;;;;50.50;39.00;;;;;15.41;37.77;102944.41;5080201;27;45329;-62
2022/03/19 11:03:20;;;;;;;;;58.75;45.75;;;;;15.37;37.18;102945.34;5080633;27;46285;-61
2022/03/19 11:05:48;;;;;;;;;56.25;42.50;;;;;15.38;36.72;102941.81;5079312;27;45241;-61
2022/03/19 11:08:18;;;;;;;;;58.50;46.75;;;;;15.51;37.83;102935.56;5081097;28;45357;-62
2022/03/19 11:10:45;;;;;;;;;56.50;43.50;;;;;15.54;36.24;102934.66;5080236;27;45556;-62
2022/03/19 11:13:16;;;;;;;;;55.75;41.25;;;;;15.58;37.04;102924.97;5080902;28;46119;-63
2022/03/19 11:15:42;;;;;;;;;56.00;44.25;;;;;15.59;36.69;102925.00;5080427;27;45873;-62
2022/03/19 11:18:07;;;;;;;;;55.50;41.75;;;;;15.59;36.73;102908.41;5080826;27;45367;-61
2022/03/19 11:20:34;;;;;;;;;54.75;42.00;;;;;15.64;37.07;102914.47;5079118;27;45342;-62
2022/03/19 11:23:03;;;;;;;;;57.50;44.00;;;;;15.70;36.23;102917.00;5080572;27;46195;-62
2022/03/19 11:25:32;;;;;;;;;52.25;41.50;;;;;15.77;36.42;102902.91;5080335;27;45333;-61
2022/03/19 11:28:02;;;;;;;;;59.75;43.25;;;;;15.77;35.73;102911.63;5080927;27;45287;-62
2022/03/19 11:30:30;;;;;;;;;53.75;41.25;;;;;15.84;35.85;102911.56;5080037;27;45376;-63
2022/03/19 11:33:19;;;;;;;;;60.25;42.25;;;;;15.97;35.55;102897.34;5080515;28;45477;-63
2022/03/19 11:35:46;;;;;;;;;52.75;40.25;;;;;16.03;34.86;102895.53;5076290;28;45767;-62
2022/03/19 11:38:20;;;;;;;;;48.25;37.25;;;;;16.08;34.65;102893.69;5080332;27;45210;-67